KDAN

Danville Regional Airport

Danville, Virginia, USA
METAR KDAN 150253Z AUTO 19003KT 10SM FEW120 22/22 A3003 RMK AO2 SLP158 T02220222 51018
Observed Flight Rules
Aug-15 @ 02:53 UTC (43 minutes ago) Visual Flight Rules
Wind Visibility Clouds
190° at 3 knots 10 miles
  • Few at 12,000' AGL
Temperatures Readings
Current 22°C / 72°F
Dewpoint 22°C / 72°F
Humidity 100%
Altimeter 30.03" Hg
Pressure 1015.8 hPa
Elevation 175
METAR KDAN 150253Z AUTO 19003KT 10SM FEW120 22/22 A3003 RMK AO2 SLP158 T02220222 51018
Observed Flight Rules
Aug-15 @ 02:53 UTC
(43 minutes ago)
VFR
Wind Visibility
190° at 3 knots 10 miles
Clouds
  • Few at 12,000' AGL
Temperature Dewpoint
22°C / 72°F 22°C / 72°F
Humidity Altimeter Pressure
100% 30.03" Hg 1015.8 hPa